sensor_id;sensor_type;location;lat;lon;timestamp;temperature;humidity
20985;DHT22;10651;47.552;7.606;2024-01-11T08:08:42;0.70;99.90
20985;DHT22;10651;47.552;7.606;2024-01-11T08:24:47;0.80;99.90
20985;DHT22;10651;47.552;7.606;2024-01-11T08:41:09;0.80;99.90
20985;DHT22;10651;47.552;7.606;2024-01-11T08:48:09;0.90;99.90
20985;DHT22;10651;47.552;7.606;2024-01-11T08:51:41;0.90;99.90
20985;DHT22;10651;47.552;7.606;2024-01-11T08:58:02;0.90;99.90
20985;DHT22;10651;47.552;7.606;2024-01-11T09:14:20;1.20;99.90
20985;DHT22;10651;47.552;7.606;2024-01-11T09:17:27;1.20;99.90
20985;DHT22;10651;47.552;7.606;2024-01-11T09:27:02;1.20;99.90
20985;DHT22;10651;47.552;7.606;2024-01-11T09:43:12;1.20;99.90
20985;DHT22;10651;47.552;7.606;2024-01-11T09:49:57;1.30;99.90
20985;DHT22;10651;47.552;7.606;2024-01-11T09:56:49;1.40;99.90
20985;DHT22;10651;47.552;7.606;2024-01-11T10:03:30;1.40;99.90
20985;DHT22;10651;47.552;7.606;2024-01-11T10:10:09;1.60;99.90
20985;DHT22;10651;47.552;7.606;2024-01-11T10:13:11;1.50;99.90
20985;DHT22;10651;47.552;7.606;2024-01-11T10:16:33;1.50;99.90
20985;DHT22;10651;47.552;7.606;2024-01-11T10:19:44;1.50;99.90
20985;DHT22;10651;47.552;7.606;2024-01-11T10:25:24;1.50;99.90
20985;DHT22;10651;47.552;7.606;2024-01-11T10:28:52;1.50;99.90
20985;DHT22;10651;47.552;7.606;2024-01-11T10:35:12;1.60;99.90
20985;DHT22;10651;47.552;7.606;2024-01-11T10:38:35;1.60;99.90
20985;DHT22;10651;47.552;7.606;2024-01-11T10:41:39;1.50;99.90
20985;DHT22;10651;47.552;7.606;2024-01-11T10:51:52;1.60;99.90
20985;DHT22;10651;47.552;7.606;2024-01-11T10:58:01;1.50;99.90
20985;DHT22;10651;47.552;7.606;2024-01-11T11:00:42;1.50;99.90
20985;DHT22;10651;47.552;7.606;2024-01-11T11:03:16;1.40;99.90
20985;DHT22;10651;47.552;7.606;2024-01-11T11:05:47;1.40;99.90
20985;DHT22;10651;47.552;7.606;2024-01-11T11:08:34;1.50;99.90
20985;DHT22;10651;47.552;7.606;2024-01-11T11:11:07;1.50;99.90
20985;DHT22;10651;47.552;7.606;2024-01-11T11:14:04;1.50;99.90
20985;DHT22;10651;47.552;7.606;2024-01-11T11:16:41;1.50;99.90
20985;DHT22;10651;47.552;7.606;2024-01-11T11:19:22;1.50;99.90
20985;DHT22;10651;47.552;7.606;2024-01-11T11:21:51;1.60;99.90
20985;DHT22;10651;47.552;7.606;2024-01-11T11:24:23;1.50;99.90
20985;DHT22;10651;47.552;7.606;2024-01-11T11:27:06;1.50;99.90
20985;DHT22;10651;47.552;7.606;2024-01-11T11:30:05;1.60;99.90
20985;DHT22;10651;47.552;7.606;2024-01-11T11:32:37;1.60;99.90
20985;DHT22;10651;47.552;7.606;2024-01-11T11:42:30;1.60;99.90
20985;DHT22;10651;47.552;7.606;2024-01-11T11:52:51;1.70;99.90
20985;DHT22;10651;47.552;7.606;2024-01-11T11:59:23;2.00;99.90
20985;DHT22;10651;47.552;7.606;2024-01-11T12:12:21;2.20;99.90
20985;DHT22;10651;47.552;7.606;2024-01-11T12:15:20;2.40;99.90
20985;DHT22;10651;47.552;7.606;2024-01-11T12:18:09;2.40;99.90
20985;DHT22;10651;47.552;7.606;2024-01-11T12:21:19;2.40;99.90
20985;DHT22;10651;47.552;7.606;2024-01-11T12:28:21;2.60;99.90
20985;DHT22;10651;47.552;7.606;2024-01-11T12:40:46;2.40;99.90
20985;DHT22;10651;47.552;7.606;2024-01-11T12:47:10;2.10;99.90
20985;DHT22;10651;47.552;7.606;2024-01-11T12:49:42;2.00;99.90
20985;DHT22;10651;47.552;7.606;2024-01-11T12:52:47;1.90;99.90
20985;DHT22;10651;47.552;7.606;2024-01-11T12:55:28;2.00;99.90
20985;DHT22;10651;47.552;7.606;2024-01-11T12:58:04;1.80;99.90
20985;DHT22;10651;47.552;7.606;2024-01-11T13:00:46;1.90;99.90
20985;DHT22;10651;47.552;7.606;2024-01-11T13:03:12;2.00;99.90
20985;DHT22;10651;47.552;7.606;2024-01-11T13:05:59;2.00;99.90
20985;DHT22;10651;47.552;7.606;2024-01-11T13:08:53;2.00;99.90
20985;DHT22;10651;47.552;7.606;2024-01-11T13:11:49;2.00;99.90
20985;DHT22;10651;47.552;7.606;2024-01-11T13:14:15;2.00;99.90
20985;DHT22;10651;47.552;7.606;2024-01-11T13:16:56;2.10;99.90
20985;DHT22;10651;47.552;7.606;2024-01-11T13:19:22;1.90;99.90
20985;DHT22;10651;47.552;7.606;2024-01-11T13:21:50;1.90;99.90
20985;DHT22;10651;47.552;7.606;2024-01-11T13:24:22;2.00;99.90
20985;DHT22;10651;47.552;7.606;2024-01-11T13:26:59;2.00;99.90
20985;DHT22;10651;47.552;7.606;2024-01-11T13:29:43;2.10;99.90
20985;DHT22;10651;47.552;7.606;2024-01-11T13:32:32;2.00;99.90
20985;DHT22;10651;47.552;7.606;2024-01-11T13:35:24;2.00;99.90
20985;DHT22;10651;47.552;7.606;2024-01-11T13:37:56;2.00;99.90
20985;DHT22;10651;47.552;7.606;2024-01-11T13:40:33;1.90;99.90
20985;DHT22;10651;47.552;7.606;2024-01-11T13:43:53;2.00;99.90
20985;DHT22;10651;47.552;7.606;2024-01-11T13:46:20;1.90;99.90
20985;DHT22;10651;47.552;7.606;2024-01-11T13:48:58;2.00;99.90
20985;DHT22;10651;47.552;7.606;2024-01-11T13:51:50;1.90;99.90
20985;DHT22;10651;47.552;7.606;2024-01-11T13:54:31;1.90;99.90
20985;DHT22;10651;47.552;7.606;2024-01-11T13:57:38;1.90;99.90
20985;DHT22;10651;47.552;7.606;2024-01-11T14:07:43;2.00;99.90
20985;DHT22;10651;47.552;7.606;2024-01-11T14:10:59;1.90;99.90
20985;DHT22;10651;47.552;7.606;2024-01-11T14:28:18;2.10;99.90
20985;DHT22;10651;47.552;7.606;2024-01-11T14:37:52;2.20;99.90
20985;DHT22;10651;47.552;7.606;2024-01-11T14:51:04;2.10;99.90
20985;DHT22;10651;47.552;7.606;2024-01-11T14:57:13;1.90;99.90
20985;DHT22;10651;47.552;7.606;2024-01-11T15:00:29;1.90;99.90
20985;DHT22;10651;47.552;7.606;2024-01-11T15:03:14;2.00;99.90
20985;DHT22;10651;47.552;7.606;2024-01-11T15:09:29;1.80;99.90
20985;DHT22;10651;47.552;7.606;2024-01-11T15:12:27;1.80;99.90
20985;DHT22;10651;47.552;7.606;2024-01-11T15:18:50;1.80;99.90
20985;DHT22;10651;47.552;7.606;2024-01-11T15:22:00;1.80;99.90
20985;DHT22;10651;47.552;7.606;2024-01-11T15:28:45;1.80;99.90
20985;DHT22;10651;47.552;7.606;2024-01-11T15:39:16;1.60;99.90
20985;DHT22;10651;47.552;7.606;2024-01-11T15:45:28;1.60;99.90
20985;DHT22;10651;47.552;7.606;2024-01-11T15:47:53;1.50;99.90
20985;DHT22;10651;47.552;7.606;2024-01-11T15:50:39;1.60;99.90
20985;DHT22;10651;47.552;7.606;2024-01-11T15:53:36;1.70;99.90
20985;DHT22;10651;47.552;7.606;2024-01-11T15:56:05;1.60;99.90
20985;DHT22;10651;47.552;7.606;2024-01-11T15:58:34;1.60;99.90
20985;DHT22;10651;47.552;7.606;2024-01-11T16:01:19;1.50;99.90
20985;DHT22;10651;47.552;7.606;2024-01-11T16:04:03;1.40;99.90
20985;DHT22;10651;47.552;7.606;2024-01-11T16:07:01;1.50;99.90
20985;DHT22;10651;47.552;7.606;2024-01-11T16:09:31;1.40;99.90
20985;DHT22;10651;47.552;7.606;2024-01-11T16:11:57;1.40;99.90
20985;DHT22;10651;47.552;7.606;2024-01-11T16:14:31;1.40;99.90
20985;DHT22;10651;47.552;7.606;2024-01-11T16:17:05;1.50;99.90
20985;DHT22;10651;47.552;7.606;2024-01-11T16:19:53;1.50;99.90
20985;DHT22;10651;47.552;7.606;2024-01-11T16:26:00;1.60;99.90
20985;DHT22;10651;47.552;7.606;2024-01-11T16:32:08;1.60;99.90
20985;DHT22;10651;47.552;7.606;2024-01-11T16:34:37;1.60;99.90
20985;DHT22;10651;47.552;7.606;2024-01-11T16:37:35;1.60;99.90
20985;DHT22;10651;47.552;7.606;2024-01-11T17:12:28;1.50;99.90
20985;DHT22;10651;47.552;7.606;2024-01-11T17:22:08;1.70;99.90
20985;DHT22;10651;47.552;7.606;2024-01-11T17:28:25;1.70;99.90
20985;DHT22;10651;47.552;7.606;2024-01-11T17:34:28;1.80;99.90
20985;DHT22;10651;47.552;7.606;2024-01-11T17:37:15;1.70;99.90
20985;DHT22;10651;47.552;7.606;2024-01-11T17:43:36;1.60;99.90
20985;DHT22;10651;47.552;7.606;2024-01-11T17:50:40;1.70;99.90
20985;DHT22;10651;47.552;7.606;2024-01-11T17:56:28;1.70;99.90
20985;DHT22;10651;47.552;7.606;2024-01-11T17:59:01;1.60;99.90
20985;DHT22;10651;47.552;7.606;2024-01-11T18:01:42;1.60;99.90
20985;DHT22;10651;47.552;7.606;2024-01-11T18:04:28;1.60;99.90
20985;DHT22;10651;47.552;7.606;2024-01-11T18:07:31;1.70;99.90
20985;DHT22;10651;47.552;7.606;2024-01-11T18:10:00;1.70;99.90
20985;DHT22;10651;47.552;7.606;2024-01-11T18:12:34;1.70;99.90
20985;DHT22;10651;47.552;7.606;2024-01-11T18:15:06;1.70;99.90
20985;DHT22;10651;47.552;7.606;2024-01-11T18:21:22;1.80;99.90
20985;DHT22;10651;47.552;7.606;2024-01-11T18:24:06;1.80;99.90
20985;DHT22;10651;47.552;7.606;2024-01-11T18:30:30;1.80;99.90
20985;DHT22;10651;47.552;7.606;2024-01-11T18:32:58;1.90;99.90
20985;DHT22;10651;47.552;7.606;2024-01-11T18:35:37;1.90;99.90
20985;DHT22;10651;47.552;7.606;2024-01-11T18:38:33;1.90;99.90
20985;DHT22;10651;47.552;7.606;2024-01-11T18:44:37;1.80;99.90
20985;DHT22;10651;47.552;7.606;2024-01-11T18:50:49;1.90;99.90
20985;DHT22;10651;47.552;7.606;2024-01-11T19:10:28;1.90;99.90
20985;DHT22;10651;47.552;7.606;2024-01-11T19:13:06;1.80;99.90
20985;DHT22;10651;47.552;7.606;2024-01-11T19:15:41;1.80;99.90
20985;DHT22;10651;47.552;7.606;2024-01-11T19:18:41;1.80;99.90
20985;DHT22;10651;47.552;7.606;2024-01-11T19:25:02;1.70;99.90
20985;DHT22;10651;47.552;7.606;2024-01-11T19:31:04;1.80;99.90
20985;DHT22;10651;47.552;7.606;2024-01-11T19:37:26;1.80;99.90
20985;DHT22;10651;47.552;7.606;2024-01-11T19:39:55;1.80;99.90
20985;DHT22;10651;47.552;7.606;2024-01-11T19:42:23;1.80;99.90
20985;DHT22;10651;47.552;7.606;2024-01-11T19:44:59;1.80;99.90
20985;DHT22;10651;47.552;7.606;2024-01-11T19:47:27;1.70;99.90
20985;DHT22;10651;47.552;7.606;2024-01-11T19:49:56;1.70;99.90
20985;DHT22;10651;47.552;7.606;2024-01-11T19:52:48;1.80;99.90
20985;DHT22;10651;47.552;7.606;2024-01-11T19:58:39;1.80;99.90
20985;DHT22;10651;47.552;7.606;2024-01-11T20:01:16;1.80;99.90
20985;DHT22;10651;47.552;7.606;2024-01-11T20:11:33;1.70;99.90
20985;DHT22;10651;47.552;7.606;2024-01-11T20:14:28;1.70;99.90
20985;DHT22;10651;47.552;7.606;2024-01-11T20:16:57;1.60;99.90
20985;DHT22;10651;47.552;7.606;2024-01-11T20:19:28;1.60;99.90
20985;DHT22;10651;47.552;7.606;2024-01-11T20:36:05;1.40;99.90
20985;DHT22;10651;47.552;7.606;2024-01-11T20:39:03;1.50;99.90
20985;DHT22;10651;47.552;7.606;2024-01-11T20:53:03;1.60;99.90
20985;DHT22;10651;47.552;7.606;2024-01-11T20:59:16;1.70;99.90
20985;DHT22;10651;47.552;7.606;2024-01-11T21:01:41;1.60;99.90
20985;DHT22;10651;47.552;7.606;2024-01-11T21:04:08;1.70;99.90
20985;DHT22;10651;47.552;7.606;2024-01-11T21:06:48;1.90;99.90
20985;DHT22;10651;47.552;7.606;2024-01-11T21:09:17;1.80;99.90
20985;DHT22;10651;47.552;7.606;2024-01-11T21:11:53;1.70;99.90
20985;DHT22;10651;47.552;7.606;2024-01-11T21:14:26;1.60;99.90
20985;DHT22;10651;47.552;7.606;2024-01-11T21:17:04;1.60;99.90
20985;DHT22;10651;47.552;7.606;2024-01-11T21:19:30;1.60;99.90
20985;DHT22;10651;47.552;7.606;2024-01-11T21:22:23;1.70;99.90
20985;DHT22;10651;47.552;7.606;2024-01-11T21:25:06;1.70;99.90
20985;DHT22;10651;47.552;7.606;2024-01-11T21:27:32;1.60;99.90
20985;DHT22;10651;47.552;7.606;2024-01-11T21:30:09;1.60;99.90
20985;DHT22;10651;47.552;7.606;2024-01-11T21:32:46;1.50;99.90
20985;DHT22;10651;47.552;7.606;2024-01-11T21:35:21;1.40;99.90
20985;DHT22;10651;47.552;7.606;2024-01-11T21:38:10;1.50;99.90
20985;DHT22;10651;47.552;7.606;2024-01-11T21:40:49;1.30;99.90
20985;DHT22;10651;47.552;7.606;2024-01-11T21:43:47;1.40;99.90
20985;DHT22;10651;47.552;7.606;2024-01-11T21:46:24;1.30;99.90
20985;DHT22;10651;47.552;7.606;2024-01-11T21:48:57;1.20;99.90
20985;DHT22;10651;47.552;7.606;2024-01-11T21:51:42;1.20;99.90
20985;DHT22;10651;47.552;7.606;2024-01-11T21:54:25;1.20;99.90
20985;DHT22;10651;47.552;7.606;2024-01-11T21:56:52;1.20;99.90
20985;DHT22;10651;47.552;7.606;2024-01-11T21:59:37;1.10;99.90
20985;DHT22;10651;47.552;7.606;2024-01-11T22:02:03;1.10;99.90
20985;DHT22;10651;47.552;7.606;2024-01-11T22:04:32;1.10;99.90
20985;DHT22;10651;47.552;7.606;2024-01-11T22:06:58;1.00;99.90
20985;DHT22;10651;47.552;7.606;2024-01-11T22:09:26;1.00;99.90
20985;DHT22;10651;47.552;7.606;2024-01-11T22:12:02;1.00;99.90
20985;DHT22;10651;47.552;7.606;2024-01-11T22:14:31;1.00;99.90
20985;DHT22;10651;47.552;7.606;2024-01-11T22:17:01;1.00;99.90
20985;DHT22;10651;47.552;7.606;2024-01-11T22:19:48;0.90;99.90
20985;DHT22;10651;47.552;7.606;2024-01-11T22:22:19;0.80;99.90
20985;DHT22;10651;47.552;7.606;2024-01-11T22:24:53;0.80;99.90
20985;DHT22;10651;47.552;7.606;2024-01-11T22:27:29;0.80;99.90
20985;DHT22;10651;47.552;7.606;2024-01-11T22:29:55;0.80;99.90
20985;DHT22;10651;47.552;7.606;2024-01-11T22:32:21;0.70;99.90
20985;DHT22;10651;47.552;7.606;2024-01-11T22:34:46;0.70;99.90
20985;DHT22;10651;47.552;7.606;2024-01-11T22:44:19;0.70;99.90
20985;DHT22;10651;47.552;7.606;2024-01-11T22:46:57;0.70;99.90
20985;DHT22;10651;47.552;7.606;2024-01-11T22:50:02;0.70;99.90
20985;DHT22;10651;47.552;7.606;2024-01-11T22:52:54;0.60;99.90
20985;DHT22;10651;47.552;7.606;2024-01-11T22:55:40;0.70;99.90
20985;DHT22;10651;47.552;7.606;2024-01-11T22:58:08;0.70;99.90
20985;DHT22;10651;47.552;7.606;2024-01-11T23:00:42;0.70;99.90
20985;DHT22;10651;47.552;7.606;2024-01-11T23:03:13;0.80;99.90
20985;DHT22;10651;47.552;7.606;2024-01-11T23:05:39;0.70;99.90
20985;DHT22;10651;47.552;7.606;2024-01-11T23:08:07;0.60;99.90
20985;DHT22;10651;47.552;7.606;2024-01-11T23:10:39;0.60;99.90
20985;DHT22;10651;47.552;7.606;2024-01-11T23:13:08;0.70;99.90
20985;DHT22;10651;47.552;7.606;2024-01-11T23:15:42;0.70;99.90
20985;DHT22;10651;47.552;7.606;2024-01-11T23:18:10;0.60;99.90
